createdAt,value
2017-03-21T00:00:04.041Z,84.55
2017-03-21T00:00:08.510Z,84.55
2017-03-21T00:00:12.827Z,84.64
2017-03-21T00:00:17.270Z,84.64
2017-03-21T00:00:21.697Z,84.74
2017-03-21T00:00:26.132Z,84.55
2017-03-21T00:00:30.438Z,84.55
2017-03-21T00:00:34.873Z,84.64
2017-03-21T00:00:39.182Z,84.83
2017-03-21T00:00:43.371Z,84.64
2017-03-21T00:00:47.679Z,84.45
2017-03-21T00:00:52.129Z,83.69
2017-03-21T00:00:56.438Z,83.88
2017-03-21T00:01:00.629Z,84.55
2017-03-21T00:01:05.306Z,84.45
2017-03-21T00:01:09.746Z,84.36
2017-03-21T00:01:14.174Z,84.55
2017-03-21T00:01:18.494Z,84.45
2017-03-21T00:01:22.924Z,84.45
2017-03-21T00:01:27.121Z,84.36
2017-03-21T00:01:31.430Z,84.26
2017-03-21T00:01:35.860Z,84.36
2017-03-21T00:01:40.049Z,84.74
2017-03-21T00:01:44.364Z,84.74
2017-03-21T00:01:48.833Z,84.74
2017-03-21T00:01:53.145Z,84.55
2017-03-21T00:01:57.580Z,84.45
2017-03-21T00:02:02.015Z,84.74
2017-03-21T00:02:06.211Z,84.55
2017-03-21T00:02:10.525Z,84.55
2017-03-21T00:02:14.955Z,84.74
2017-03-21T00:02:19.395Z,84.55
2017-03-21T00:02:23.709Z,84.55
2017-03-21T00:02:28.024Z,84.74
2017-03-21T00:02:32.460Z,84.83
2017-03-21T00:02:36.925Z,84.83
2017-03-21T00:02:41.367Z,84.45
2017-03-21T00:02:45.683Z,84.55
2017-03-21T00:02:50.013Z,84.83
2017-03-21T00:02:54.490Z,84.55
2017-03-21T00:02:58.811Z,84.64
2017-03-21T00:03:03.255Z,84.74
2017-03-21T00:03:07.702Z,84.36
2017-03-21T00:03:12.127Z,84.45
2017-03-21T00:03:16.546Z,84.07
2017-03-21T00:03:20.752Z,84.26
2017-03-21T00:03:25.081Z,83.78
2017-03-21T00:03:29.517Z,83.97
2017-03-21T00:03:33.839Z,84.45
2017-03-21T00:03:38.161Z,84.64
2017-03-21T00:03:42.619Z,84.07
2017-03-21T00:03:47.053Z,83.88
2017-03-21T00:03:51.493Z,84.07
2017-03-21T00:03:55.811Z,83.78
2017-03-21T00:04:00.028Z,83.88
2017-03-21T00:04:04.516Z,83.88
2017-03-21T00:04:08.833Z,83.78
2017-03-21T00:04:12.918Z,83.78
2017-03-21T00:04:17.241Z,83.97
2017-03-21T00:04:21.564Z,83.97
2017-03-21T00:04:26.000Z,83.97
2017-03-21T00:04:30.430Z,83.88
2017-03-21T00:04:34.635Z,83.88
2017-03-21T00:04:38.948Z,83.97
2017-03-21T00:04:43.260Z,83.59
2017-03-21T00:04:47.581Z,83.78
2017-03-21T00:04:52.046Z,83.88
2017-03-21T00:04:56.493Z,83.88
2017-03-21T00:05:00.824Z,83.59
2017-03-21T00:05:05.131Z,83.78
2017-03-21T00:05:09.604Z,83.78
2017-03-21T00:05:13.925Z,83.97
2017-03-21T00:05:18.236Z,83.88
2017-03-21T00:05:22.551Z,83.59
2017-03-21T00:05:26.870Z,83.5
2017-03-21T00:05:31.186Z,83.78
2017-03-21T00:05:35.613Z,83.88
2017-03-21T00:05:40.050Z,83.69
2017-03-21T00:05:44.485Z,83.78
2017-03-21T00:05:48.916Z,83.02
2017-03-21T00:05:53.348Z,83.31
2017-03-21T00:05:57.673Z,83.12
2017-03-21T00:06:02.337Z,83.59
2017-03-21T00:06:06.655Z,83.69
2017-03-21T00:06:11.083Z,83.4
2017-03-21T00:06:15.199Z,83.02
2017-03-21T00:06:19.635Z,83.69
2017-03-21T00:06:24.064Z,83.4
2017-03-21T00:06:28.497Z,83.69
2017-03-21T00:06:32.819Z,84.07
2017-03-21T00:06:37.128Z,83.97
2017-03-21T00:06:41.564Z,83.78
2017-03-21T00:06:45.993Z,83.78
2017-03-21T00:06:50.426Z,84.07
2017-03-21T00:06:54.851Z,84.07
2017-03-21T00:06:59.166Z,83.78
2017-03-21T00:07:03.512Z,83.78
2017-03-21T00:07:07.958Z,83.5
2017-03-21T00:07:12.275Z,83.88
2017-03-21T00:07:16.472Z,84.16
2017-03-21T00:07:20.676Z,83.97
2017-03-21T00:07:24.991Z,83.02
2017-03-21T00:07:29.306Z,83.88
2017-03-21T00:07:33.622Z,83.88
2017-03-21T00:07:38.062Z,84.07
2017-03-21T00:07:42.463Z,84.16
2017-03-21T00:07:46.904Z,83.78
2017-03-21T00:07:51.342Z,83.78
2017-03-21T00:07:55.665Z,83.88
2017-03-21T00:08:00.118Z,83.69
2017-03-21T00:08:04.556Z,83.88
2017-03-21T00:08:08.996Z,84.07
2017-03-21T00:08:13.337Z,84.07
2017-03-21T00:08:17.654Z,83.88
2017-03-21T00:08:21.737Z,83.78
2017-03-21T00:08:26.061Z,83.02
2017-03-21T00:08:30.390Z,83.31
2017-03-21T00:08:34.824Z,83.31
2017-03-21T00:08:39.019Z,83.31
2017-03-21T00:08:43.332Z,83.02
2017-03-21T00:08:47.768Z,83.02
2017-03-21T00:08:52.209Z,83.12
2017-03-21T00:08:56.528Z,83.12
2017-03-21T00:09:00.964Z,83.4
2017-03-21T00:09:05.413Z,83.02
2017-03-21T00:09:09.885Z,83.4
2017-03-21T00:09:14.209Z,83.4
2017-03-21T00:09:18.533Z,83.31
2017-03-21T00:09:22.979Z,82.45
2017-03-21T00:09:27.423Z,82.73
2017-03-21T00:09:31.853Z,82.92
2017-03-21T00:09:36.056Z,82.45
2017-03-21T00:09:40.382Z,82.83
2017-03-21T00:09:44.822Z,82.64
2017-03-21T00:09:49.255Z,82.83
2017-03-21T00:09:53.695Z,83.12
2017-03-21T00:09:58.143Z,82.92
2017-03-21T00:10:02.580Z,82.83
2017-03-21T00:10:06.784Z,82.92
2017-03-21T00:10:11.219Z,82.73
2017-03-21T00:10:15.453Z,82.73
2017-03-21T00:10:19.654Z,82.64
2017-03-21T00:10:23.966Z,82.92
2017-03-21T00:10:28.398Z,82.92
2017-03-21T00:10:32.712Z,83.02
2017-03-21T00:10:37.026Z,83.12
2017-03-21T00:10:41.219Z,83.02
2017-03-21T00:10:45.533Z,82.73
2017-03-21T00:10:49.966Z,82.35
2017-03-21T00:10:54.281Z,82.26
2017-03-21T00:10:58.478Z,82.54
2017-03-21T00:11:02.908Z,82.54
2017-03-21T00:11:07.339Z,82.45
2017-03-21T00:11:11.765Z,82.07
2017-03-21T00:11:16.085Z,82.35
2017-03-21T00:11:20.289Z,82.45
2017-03-21T00:11:24.480Z,82.64
2017-03-21T00:11:28.907Z,82.64
2017-03-21T00:11:33.334Z,82.26
2017-03-21T00:11:37.771Z,82.17
2017-03-21T00:11:41.963Z,82.35
2017-03-21T00:11:46.271Z,82.35
2017-03-21T00:11:50.703Z,82.35
2017-03-21T00:11:55.152Z,82.45
2017-03-21T00:11:59.583Z,82.64
2017-03-21T00:12:03.912Z,82.64
2017-03-21T00:12:07.874Z,82.35
2017-03-21T00:12:12.310Z,82.64
2017-03-21T00:12:16.502Z,82.64
2017-03-21T00:12:20.703Z,82.64
2017-03-21T00:12:25.024Z,82.07
2017-03-21T00:12:29.457Z,82.17
2017-03-21T00:12:33.891Z,82.45
2017-03-21T00:12:38.330Z,82.26
2017-03-21T00:12:42.660Z,82.26
2017-03-21T00:12:47.107Z,82.26
2017-03-21T00:12:51.552Z,82.45
2017-03-21T00:12:55.882Z,82.45
2017-03-21T00:13:00.360Z,82.35
2017-03-21T00:13:04.797Z,82.35
2017-03-21T00:13:09.235Z,82.35
2017-03-21T00:13:13.675Z,82.26
2017-03-21T00:13:18.159Z,81.78
2017-03-21T00:13:22.605Z,82.07
2017-03-21T00:13:27.041Z,82.26
2017-03-21T00:13:31.257Z,82.45
2017-03-21T00:13:35.702Z,82.45
2017-03-21T00:13:40.026Z,82.45
2017-03-21T00:13:44.346Z,82.54
2017-03-21T00:13:48.787Z,82.26
2017-03-21T00:13:53.154Z,82.26
2017-03-21T00:13:57.594Z,82.26
2017-03-21T00:14:02.018Z,82.26
2017-03-21T00:14:06.227Z,82.45
2017-03-21T00:14:10.593Z,82.35
2017-03-21T00:14:14.908Z,82.45
2017-03-21T00:14:19.351Z,82.45
2017-03-21T00:14:23.561Z,82.35
2017-03-21T00:14:27.998Z,82.26
2017-03-21T00:14:32.422Z,82.07
2017-03-21T00:14:36.849Z,82.07
2017-03-21T00:14:41.292Z,82.17
2017-03-21T00:14:45.602Z,81.88
2017-03-21T00:14:49.919Z,81.97
2017-03-21T00:14:54.240Z,82.26
2017-03-21T00:14:58.681Z,81.97
2017-03-21T00:15:03.214Z,81.49
2017-03-21T00:15:07.638Z,82.07
2017-03-21T00:15:12.066Z,81.97
2017-03-21T00:15:16.507Z,82.07
2017-03-21T00:15:20.819Z,81.68
2017-03-21T00:15:25.015Z,82.07
2017-03-21T00:15:29.330Z,82.07
2017-03-21T00:15:33.519Z,82.17
2017-03-21T00:15:37.836Z,81.97
2017-03-21T00:15:42.038Z,82.17
2017-03-21T00:15:46.488Z,82.07
2017-03-21T00:15:50.919Z,82.17
2017-03-21T00:15:55.351Z,82.35
2017-03-21T00:15:59.663Z,82.07
2017-03-21T00:16:03.981Z,81.97
2017-03-21T00:16:08.289Z,82.45
2017-03-21T00:16:12.600Z,81.78
2017-03-21T00:16:16.927Z,82.35
2017-03-21T00:16:21.005Z,82.07
2017-03-21T00:16:25.202Z,82.07
2017-03-21T00:16:29.637Z,82.07
2017-03-21T00:16:33.842Z,81.97
2017-03-21T00:16:38.273Z,81.97
2017-03-21T00:16:42.579Z,82.07
2017-03-21T00:16:47.018Z,82.07
2017-03-21T00:16:51.329Z,82.17
2017-03-21T00:16:55.640Z,81.88
2017-03-21T00:16:59.838Z,82.17
2017-03-21T00:17:04.171Z,82.17
2017-03-21T00:17:08.530Z,82.07
2017-03-21T00:17:12.842Z,82.17
2017-03-21T00:17:17.156Z,81.97
2017-03-21T00:17:21.475Z,81.68
2017-03-21T00:17:25.947Z,82.07
2017-03-21T00:17:30.270Z,82.17
2017-03-21T00:17:34.583Z,81.97
2017-03-21T00:17:38.802Z,82.35
2017-03-21T00:17:43.270Z,81.97
2017-03-21T00:17:47.705Z,82.17
2017-03-21T00:17:52.144Z,81.97
2017-03-21T00:17:56.345Z,82.07
2017-03-21T00:18:00.554Z,82.17
2017-03-21T00:18:04.993Z,81.88
2017-03-21T00:18:09.189Z,82.45
2017-03-21T00:18:13.632Z,81.78
2017-03-21T00:18:18.111Z,82.45
2017-03-21T00:18:22.432Z,82.45
2017-03-21T00:18:26.877Z,82.45
2017-03-21T00:18:31.208Z,82.45
2017-03-21T00:18:35.645Z,82.45
2017-03-21T00:18:39.976Z,82.45
2017-03-21T00:18:44.298Z,82.26
2017-03-21T00:18:48.742Z,82.26
2017-03-21T00:18:53.046Z,82.45
2017-03-21T00:18:57.495Z,82.45
2017-03-21T00:19:01.826Z,82.45
2017-03-21T00:19:06.369Z,82.54
2017-03-21T00:19:10.804Z,82.45
2017-03-21T00:19:15.240Z,82.26
2017-03-21T00:19:19.566Z,82.45
2017-03-21T00:19:23.887Z,82.45
2017-03-21T00:19:28.083Z,82.45
2017-03-21T00:19:32.525Z,82.45
2017-03-21T00:19:36.727Z,82.35
2017-03-21T00:19:41.163Z,82.45
2017-03-21T00:19:45.238Z,82.45
2017-03-21T00:19:49.555Z,82.26
2017-03-21T00:19:53.867Z,82.45
2017-03-21T00:19:58.196Z,82.17
2017-03-21T00:20:02.515Z,82.35
2017-03-21T00:20:06.707Z,82.35
2017-03-21T00:20:11.149Z,82.07
2017-03-21T00:20:15.617Z,82.45
2017-03-21T00:20:19.933Z,82.45
2017-03-21T00:20:24.244Z,81.88
2017-03-21T00:20:28.686Z,82.45
2017-03-21T00:20:32.884Z,82.54
2017-03-21T00:20:37.190Z,82.45
2017-03-21T00:20:41.509Z,82.17
2017-03-21T00:20:45.830Z,82.45
2017-03-21T00:20:50.253Z,82.17
2017-03-21T00:20:54.678Z,82.26
2017-03-21T00:20:58.991Z,82.26
2017-03-21T00:21:03.407Z,82.26
2017-03-21T00:21:07.834Z,82.35
2017-03-21T00:21:12.261Z,82.17
2017-03-21T00:21:16.578Z,82.26
2017-03-21T00:21:20.939Z,82.26
2017-03-21T00:21:24.895Z,82.45
2017-03-21T00:21:29.094Z,82.26
2017-03-21T00:21:33.409Z,82.17
2017-03-21T00:21:37.765Z,82.35
2017-03-21T00:21:42.107Z,82.26
2017-03-21T00:21:46.422Z,82.35
2017-03-21T00:21:50.733Z,82.45
2017-03-21T00:21:55.162Z,82.26
2017-03-21T00:21:59.486Z,82.45
2017-03-21T00:22:03.954Z,82.26
2017-03-21T00:22:08.270Z,82.35
2017-03-21T00:22:12.705Z,82.17
2017-03-21T00:22:17.138Z,82.26
2017-03-21T00:22:21.460Z,82.26
2017-03-21T00:22:25.542Z,82.45
2017-03-21T00:22:29.976Z,82.07
2017-03-21T00:22:34.409Z,81.88
2017-03-21T00:22:38.732Z,82.35
2017-03-21T00:22:43.056Z,82.26
2017-03-21T00:22:47.402Z,82.45
2017-03-21T00:22:51.717Z,82.17
2017-03-21T00:22:56.153Z,82.45
2017-03-21T00:23:00.596Z,81.88
2017-03-21T00:23:04.922Z,81.78
2017-03-21T00:23:09.357Z,81.88
2017-03-21T00:23:13.674Z,82.35
2017-03-21T00:23:17.885Z,81.88
2017-03-21T00:23:22.251Z,81.97
2017-03-21T00:23:26.570Z,81.97
2017-03-21T00:23:30.893Z,81.97
2017-03-21T00:23:35.225Z,82.07
2017-03-21T00:23:39.584Z,82.17
2017-03-21T00:23:43.913Z,81.88
2017-03-21T00:23:48.350Z,81.97
2017-03-21T00:23:52.684Z,81.97
2017-03-21T00:23:57.132Z,82.35
2017-03-21T00:24:01.569Z,81.97
2017-03-21T00:24:06.022Z,82.35
2017-03-21T00:24:10.467Z,82.17
2017-03-21T00:24:14.929Z,82.07
2017-03-21T00:24:19.246Z,82.07
2017-03-21T00:24:23.677Z,82.07
2017-03-21T00:24:28.011Z,82.07
2017-03-21T00:24:32.474Z,81.97
2017-03-21T00:24:36.904Z,82.07
2017-03-21T00:24:41.099Z,82.07
2017-03-21T00:24:45.533Z,82.17
2017-03-21T00:24:49.849Z,81.97
2017-03-21T00:24:54.047Z,82.17
2017-03-21T00:24:58.366Z,82.17
2017-03-21T00:25:02.802Z,81.97
2017-03-21T00:25:07.110Z,81.97
2017-03-21T00:25:11.540Z,82.07
2017-03-21T00:25:15.851Z,81.97
2017-03-21T00:25:20.163Z,82.07
2017-03-21T00:25:24.473Z,81.97
2017-03-21T00:25:28.898Z,82.07
2017-03-21T00:25:33.328Z,81.97
2017-03-21T00:25:37.529Z,81.97
2017-03-21T00:25:41.839Z,81.78
2017-03-21T00:25:46.147Z,81.49
2017-03-21T00:25:50.462Z,82.17
2017-03-21T00:25:54.900Z,82.07
2017-03-21T00:25:59.219Z,82.17
2017-03-21T00:26:03.848Z,82.17
2017-03-21T00:26:08.163Z,82.07
2017-03-21T00:26:12.477Z,81.97
2017-03-21T00:26:16.919Z,82.07
2017-03-21T00:26:21.353Z,82.07
2017-03-21T00:26:25.673Z,81.59
2017-03-21T00:26:29.761Z,82.17
2017-03-21T00:26:34.073Z,82.17
2017-03-21T00:26:38.389Z,81.78
2017-03-21T00:26:42.698Z,81.78
2017-03-21T00:26:47.168Z,82.26
2017-03-21T00:26:51.480Z,81.49
2017-03-21T00:26:55.669Z,82.07
2017-03-21T00:26:59.873Z,82.17
2017-03-21T00:27:04.305Z,82.07
2017-03-21T00:27:08.732Z,82.26
2017-03-21T00:27:12.925Z,82.17
2017-03-21T00:27:17.359Z,81.68
2017-03-21T00:27:21.789Z,82.17
2017-03-21T00:27:26.223Z,82.07
2017-03-21T00:27:30.532Z,82.17
2017-03-21T00:27:34.854Z,82.07
2017-03-21T00:27:39.191Z,82.17
2017-03-21T00:27:43.384Z,82.17
2017-03-21T00:27:47.811Z,81.68
2017-03-21T00:27:52.252Z,81.59
2017-03-21T00:27:56.677Z,82.26
2017-03-21T00:28:01.105Z,81.78
2017-03-21T00:28:05.521Z,81.78
2017-03-21T00:28:09.871Z,82.07
2017-03-21T00:28:14.307Z,82.07
2017-03-21T00:28:18.745Z,82.07
2017-03-21T00:28:23.187Z,82.07
2017-03-21T00:28:27.628Z,82.26
2017-03-21T00:28:32.068Z,82.07
2017-03-21T00:28:36.393Z,82.07
2017-03-21T00:28:40.831Z,81.97
2017-03-21T00:28:45.267Z,82.17
2017-03-21T00:28:49.703Z,81.97
2017-03-21T00:28:54.137Z,81.97
2017-03-21T00:28:58.477Z,81.97
2017-03-21T00:29:02.907Z,82.07
2017-03-21T00:29:07.118Z,82.07
2017-03-21T00:29:11.318Z,82.17
2017-03-21T00:29:15.766Z,82.07
2017-03-21T00:29:20.208Z,82.35
2017-03-21T00:29:24.531Z,81.97
2017-03-21T00:29:28.976Z,82.35
2017-03-21T00:29:33.291Z,81.97
2017-03-21T00:29:37.602Z,81.97
2017-03-21T00:29:41.918Z,81.97
2017-03-21T00:29:46.114Z,81.97
2017-03-21T00:29:50.551Z,81.88
2017-03-21T00:29:54.868Z,82.26
2017-03-21T00:29:59.062Z,82.35
2017-03-21T00:30:03.548Z,82.07
2017-03-21T00:30:07.982Z,81.97
2017-03-21T00:30:12.296Z,82.35
2017-03-21T00:30:16.918Z,82.17
2017-03-21T00:30:21.247Z,82.17
2017-03-21T00:30:25.563Z,81.97
2017-03-21T00:30:29.992Z,81.97
2017-03-21T00:30:34.297Z,81.97
2017-03-21T00:30:38.726Z,81.97
2017-03-21T00:30:43.158Z,81.97
2017-03-21T00:30:47.582Z,82.17
2017-03-21T00:30:52.009Z,82.07
2017-03-21T00:30:56.362Z,82.07
2017-03-21T00:31:00.796Z,82.07
2017-03-21T00:31:05.222Z,82.17
2017-03-21T00:31:09.665Z,82.17
2017-03-21T00:31:14.101Z,82.07
2017-03-21T00:31:18.532Z,82.17
2017-03-21T00:31:22.955Z,82.07
2017-03-21T00:31:27.269Z,82.17
2017-03-21T00:31:31.703Z,82.07
2017-03-21T00:31:35.928Z,82.17
2017-03-21T00:31:40.240Z,82.17
2017-03-21T00:31:44.668Z,82.07
2017-03-21T00:31:48.749Z,82.17
2017-03-21T00:31:53.184Z,82.07
2017-03-21T00:31:57.502Z,82.17
2017-03-21T00:32:01.929Z,82.17
2017-03-21T00:32:06.250Z,82.17
2017-03-21T00:32:10.559Z,82.17
2017-03-21T00:32:14.990Z,81.97
2017-03-21T00:32:19.188Z,81.97
2017-03-21T00:32:23.384Z,82.35
2017-03-21T00:32:27.816Z,81.88
2017-03-21T00:32:32.131Z,81.88
2017-03-21T00:32:36.329Z,82.35
2017-03-21T00:32:40.649Z,82.17
2017-03-21T00:32:44.749Z,81.97
2017-03-21T00:32:49.073Z,82.07
2017-03-21T00:32:53.516Z,82.07
2017-03-21T00:32:57.724Z,82.35
2017-03-21T00:33:02.038Z,82.07
2017-03-21T00:33:06.471Z,82.07
2017-03-21T00:33:10.795Z,82.17
2017-03-21T00:33:15.244Z,82.26
2017-03-21T00:33:19.688Z,82.35
2017-03-21T00:33:24.006Z,82.35
2017-03-21T00:33:28.214Z,82.35
2017-03-21T00:33:32.536Z,82.26
2017-03-21T00:33:36.741Z,82.35
2017-03-21T00:33:41.057Z,81.97
2017-03-21T00:33:45.382Z,82.35
2017-03-21T00:33:49.585Z,82.35
2017-03-21T00:33:54.031Z,82.07
2017-03-21T00:33:58.229Z,82.35
2017-03-21T00:34:02.670Z,81.97
2017-03-21T00:34:06.996Z,81.97
2017-03-21T00:34:11.431Z,82.07
2017-03-21T00:34:15.861Z,82.07
2017-03-21T00:34:20.297Z,81.88
2017-03-21T00:34:24.738Z,81.97
2017-03-21T00:34:29.058Z,81.97
2017-03-21T00:34:33.490Z,82.07
2017-03-21T00:34:37.684Z,82.07
2017-03-21T00:34:42.001Z,82.07
2017-03-21T00:34:46.431Z,82.07
2017-03-21T00:34:50.744Z,82.07
2017-03-21T00:34:55.203Z,81.88
2017-03-21T00:34:59.639Z,81.68
2017-03-21T00:35:04.087Z,82.17
2017-03-21T00:35:08.514Z,81.78
2017-03-21T00:35:12.832Z,81.88
2017-03-21T00:35:17.264Z,81.68
2017-03-21T00:35:21.702Z,82.45
2017-03-21T00:35:25.900Z,82.45
2017-03-21T00:35:30.119Z,82.17
2017-03-21T00:35:34.429Z,82.45
2017-03-21T00:35:38.503Z,82.54
2017-03-21T00:35:42.702Z,82.45
2017-03-21T00:35:47.171Z,82.26
2017-03-21T00:35:51.366Z,82.54
2017-03-21T00:35:55.799Z,82.26
2017-03-21T00:36:00.233Z,82.45
2017-03-21T00:36:04.698Z,82.45
2017-03-21T00:36:08.889Z,82.35
2017-03-21T00:36:13.324Z,82.26
2017-03-21T00:36:17.764Z,82.45
2017-03-21T00:36:22.200Z,82.26
2017-03-21T00:36:26.517Z,82.26
2017-03-21T00:36:30.941Z,82.35
2017-03-21T00:36:35.373Z,82.26
2017-03-21T00:36:39.683Z,82.07
2017-03-21T00:36:43.993Z,82.26
2017-03-21T00:36:48.426Z,82.17
2017-03-21T00:36:52.512Z,82.26
2017-03-21T00:36:56.825Z,82.26
2017-03-21T00:37:01.137Z,82.26
2017-03-21T00:37:05.598Z,82.07
2017-03-21T00:37:10.039Z,82.45
2017-03-21T00:37:14.471Z,82.35
2017-03-21T00:37:18.801Z,82.26
2017-03-21T00:37:23.233Z,82.54
2017-03-21T00:37:27.674Z,82.35
2017-03-21T00:37:31.879Z,82.45
2017-03-21T00:37:36.198Z,82.45
2017-03-21T00:37:40.513Z,82.35
2017-03-21T00:37:44.847Z,82.45
2017-03-21T00:37:49.294Z,82.45
2017-03-21T00:37:53.503Z,82.26
2017-03-21T00:37:57.943Z,82.45
2017-03-21T00:38:02.387Z,82.35
2017-03-21T00:38:06.712Z,82.35
2017-03-21T00:38:11.018Z,82.26
2017-03-21T00:38:15.463Z,82.26
2017-03-21T00:38:19.900Z,82.45
2017-03-21T00:38:24.218Z,82.26
2017-03-21T00:38:28.659Z,82.45
2017-03-21T00:38:33.099Z,82.35
2017-03-21T00:38:37.538Z,82.45
2017-03-21T00:38:41.856Z,82.45
2017-03-21T00:38:46.167Z,82.35
2017-03-21T00:38:50.600Z,82.26
2017-03-21T00:38:54.920Z,82.45
2017-03-21T00:38:59.362Z,82.26
2017-03-21T00:39:03.591Z,82.17
2017-03-21T00:39:07.920Z,82.17
2017-03-21T00:39:12.369Z,82.35
2017-03-21T00:39:16.812Z,82.45
2017-03-21T00:39:21.251Z,82.54
2017-03-21T00:39:25.573Z,82.54
2017-03-21T00:39:29.818Z,82.45
2017-03-21T00:39:34.132Z,82.07
2017-03-21T00:39:38.448Z,82.54
2017-03-21T00:39:42.772Z,82.17
2017-03-21T00:39:47.204Z,82.45
2017-03-21T00:39:51.400Z,82.17
2017-03-21T00:39:55.836Z,82.17
2017-03-21T00:40:00.057Z,82.17
2017-03-21T00:40:04.503Z,82.54
2017-03-21T00:40:08.815Z,82.45
2017-03-21T00:40:13.145Z,82.26
2017-03-21T00:40:17.580Z,82.45
2017-03-21T00:40:22.013Z,82.17
2017-03-21T00:40:26.442Z,82.17
2017-03-21T00:40:30.879Z,82.17
2017-03-21T00:40:35.196Z,82.45
2017-03-21T00:40:39.625Z,82.17
2017-03-21T00:40:43.816Z,82.45
2017-03-21T00:40:48.248Z,82.45
2017-03-21T00:40:52.688Z,82.45
2017-03-21T00:40:56.770Z,82.17
2017-03-21T00:41:01.209Z,82.07
2017-03-21T00:41:05.845Z,82.26
2017-03-21T00:41:10.276Z,82.17
2017-03-21T00:41:14.594Z,82.17
2017-03-21T00:41:19.023Z,82.17
2017-03-21T00:41:23.450Z,82.45
2017-03-21T00:41:27.802Z,82.35
2017-03-21T00:41:32.117Z,82.26
2017-03-21T00:41:36.546Z,82.17
2017-03-21T00:41:40.857Z,82.17
2017-03-21T00:41:45.050Z,82.07
2017-03-21T00:41:49.474Z,82.26
2017-03-21T00:41:53.781Z,82.17
2017-03-21T00:41:58.106Z,82.45
2017-03-21T00:42:02.521Z,82.45
2017-03-21T00:42:06.951Z,82.35
2017-03-21T00:42:11.383Z,82.26
2017-03-21T00:42:15.846Z,82.26
2017-03-21T00:42:20.166Z,82.45
2017-03-21T00:42:24.245Z,82.26
2017-03-21T00:42:28.437Z,82.26
2017-03-21T00:42:32.878Z,82.17
2017-03-21T00:42:37.311Z,82.17
2017-03-21T00:42:41.508Z,82.45
2017-03-21T00:42:45.711Z,82.35
2017-03-21T00:42:50.038Z,82.35
2017-03-21T00:42:54.481Z,82.35
2017-03-21T00:42:58.914Z,82.35
2017-03-21T00:43:03.251Z,82.26
2017-03-21T00:43:07.690Z,82.26
2017-03-21T00:43:12.126Z,82.17
2017-03-21T00:43:16.331Z,82.26
2017-03-21T00:43:20.773Z,81.97
2017-03-21T00:43:25.215Z,82.17
2017-03-21T00:43:29.540Z,82.26
2017-03-21T00:43:33.877Z,82.26
2017-03-21T00:43:38.326Z,82.17
2017-03-21T00:43:42.670Z,82.26
2017-03-21T00:43:47.010Z,82.17
2017-03-21T00:43:51.329Z,82.26
2017-03-21T00:43:55.771Z,82.26
2017-03-21T00:43:59.982Z,82.17
2017-03-21T00:44:04.630Z,82.26
2017-03-21T00:44:09.077Z,82.45
2017-03-21T00:44:13.411Z,82.35
2017-03-21T00:44:17.721Z,82.17
2017-03-21T00:44:22.159Z,82.64
2017-03-21T00:44:26.479Z,82.92
2017-03-21T00:44:30.804Z,82.54
2017-03-21T00:44:34.998Z,82.35
2017-03-21T00:44:39.445Z,82.92
2017-03-21T00:44:43.874Z,82.73
2017-03-21T00:44:48.191Z,82.45
2017-03-21T00:44:52.665Z,82.73
2017-03-21T00:44:56.986Z,82.45
2017-03-21T00:45:01.303Z,82.64
2017-03-21T00:45:05.765Z,82.54
2017-03-21T00:45:10.079Z,82.45
2017-03-21T00:45:14.396Z,82.45
2017-03-21T00:45:18.637Z,82.26
2017-03-21T00:45:22.969Z,82.26
2017-03-21T00:45:27.163Z,82.45
2017-03-21T00:45:31.484Z,82.45
2017-03-21T00:45:35.918Z,82.54
2017-03-21T00:45:40.346Z,82.45
2017-03-21T00:45:44.769Z,82.45
2017-03-21T00:45:49.077Z,82.45
2017-03-21T00:45:53.394Z,82.35
2017-03-21T00:45:57.585Z,82.45
2017-03-21T00:46:01.903Z,82.45
2017-03-21T00:46:05.978Z,82.45
2017-03-21T00:46:10.292Z,82.45
2017-03-21T00:46:14.721Z,82.17
2017-03-21T00:46:19.162Z,82.26
2017-03-21T00:46:23.474Z,82.26
2017-03-21T00:46:27.905Z,82.54
2017-03-21T00:46:32.221Z,82.54
2017-03-21T00:46:36.295Z,82.45
2017-03-21T00:46:40.600Z,82.54
2017-03-21T00:46:44.802Z,82.54
2017-03-21T00:46:49.228Z,82.54
2017-03-21T00:46:53.545Z,82.54
2017-03-21T00:46:57.745Z,82.45
2017-03-21T00:47:01.950Z,82.45
2017-03-21T00:47:06.265Z,82.64
2017-03-21T00:47:10.696Z,82.45
2017-03-21T00:47:15.141Z,82.54
2017-03-21T00:47:19.499Z,82.64
2017-03-21T00:47:23.939Z,82.45
2017-03-21T00:47:28.368Z,82.64
2017-03-21T00:47:32.685Z,82.45
2017-03-21T00:47:37.135Z,82.45
2017-03-21T00:47:41.215Z,82.45
2017-03-21T00:47:45.526Z,82.54
2017-03-21T00:47:49.851Z,82.64
2017-03-21T00:47:54.310Z,83.12
2017-03-21T00:47:58.636Z,82.45
2017-03-21T00:48:03.161Z,82.73
2017-03-21T00:48:07.370Z,82.45
2017-03-21T00:48:11.737Z,83.12
2017-03-21T00:48:16.058Z,82.35
2017-03-21T00:48:20.505Z,82.35
2017-03-21T00:48:24.829Z,83.12
2017-03-21T00:48:29.028Z,82.54
2017-03-21T00:48:33.452Z,82.64
2017-03-21T00:48:37.885Z,83.12
2017-03-21T00:48:42.334Z,83.12
2017-03-21T00:48:46.773Z,82.45
2017-03-21T00:48:51.216Z,82.45
2017-03-21T00:48:55.654Z,83.12
2017-03-21T00:48:59.865Z,83.12
2017-03-21T00:49:04.607Z,82.83
2017-03-21T00:49:08.923Z,83.12
2017-03-21T00:49:13.354Z,82.45
2017-03-21T00:49:17.800Z,83.12
2017-03-21T00:49:22.119Z,82.35
2017-03-21T00:49:26.441Z,82.64
2017-03-21T00:49:30.876Z,82.54
2017-03-21T00:49:35.313Z,82.64
2017-03-21T00:49:39.629Z,82.54
2017-03-21T00:49:44.058Z,82.54
2017-03-21T00:49:48.366Z,82.54
2017-03-21T00:49:52.854Z,82.54
2017-03-21T00:49:57.291Z,82.54
2017-03-21T00:50:01.980Z,82.45
2017-03-21T00:50:06.306Z,82.45
2017-03-21T00:50:10.622Z,82.35
2017-03-21T00:50:15.051Z,82.54
2017-03-21T00:50:19.361Z,82.73
2017-03-21T00:50:23.675Z,82.54
2017-03-21T00:50:27.997Z,82.45
2017-03-21T00:50:32.192Z,82.54
2017-03-21T00:50:36.497Z,82.17
2017-03-21T00:50:40.813Z,82.54
2017-03-21T00:50:45.248Z,82.54
2017-03-21T00:50:49.702Z,82.54
2017-03-21T00:50:54.023Z,82.64
2017-03-21T00:50:58.229Z,82.35
2017-03-21T00:51:02.572Z,82.35
2017-03-21T00:51:06.765Z,82.64
2017-03-21T00:51:11.194Z,82.35
2017-03-21T00:51:15.629Z,82.54
2017-03-21T00:51:19.940Z,82.54
2017-03-21T00:51:24.127Z,82.54
2017-03-21T00:51:28.557Z,82.64
2017-03-21T00:51:32.997Z,82.45
2017-03-21T00:51:37.307Z,82.45
2017-03-21T00:51:41.740Z,82.45
2017-03-21T00:51:46.062Z,82.54
2017-03-21T00:51:50.501Z,82.45
2017-03-21T00:51:54.809Z,82.54
2017-03-21T00:51:58.892Z,82.54
2017-03-21T00:52:03.379Z,82.45
2017-03-21T00:52:07.805Z,82.07
2017-03-21T00:52:12.240Z,82.64
2017-03-21T00:52:16.596Z,82.17
2017-03-21T00:52:20.800Z,82.35
2017-03-21T00:52:25.233Z,82.35
2017-03-21T00:52:29.668Z,82.45
2017-03-21T00:52:34.103Z,82.26
2017-03-21T00:52:38.543Z,82.17
2017-03-21T00:52:42.509Z,82.35
2017-03-21T00:52:46.833Z,82.26
2017-03-21T00:52:51.307Z,82.26
2017-03-21T00:52:55.748Z,81.97
2017-03-21T00:52:59.949Z,82.17
2017-03-21T00:53:04.271Z,82.45
2017-03-21T00:53:08.715Z,82.17
2017-03-21T00:53:12.794Z,82.17
2017-03-21T00:53:17.234Z,82.17
2017-03-21T00:53:21.563Z,82.26
2017-03-21T00:53:26.013Z,82.17
2017-03-21T00:53:30.454Z,81.97
2017-03-21T00:53:34.656Z,82.26
2017-03-21T00:53:38.985Z,82.17
2017-03-21T00:53:43.195Z,82.07
2017-03-21T00:53:47.644Z,82.54
2017-03-21T00:53:52.082Z,82.35
2017-03-21T00:53:56.291Z,82.45
2017-03-21T00:54:00.783Z,82.45
2017-03-21T00:54:05.308Z,82.35
2017-03-21T00:54:09.626Z,82.45
2017-03-21T00:54:14.063Z,82.26
2017-03-21T00:54:18.509Z,82.35
2017-03-21T00:54:22.828Z,82.45
2017-03-21T00:54:27.024Z,82.45
2017-03-21T00:54:31.345Z,82.17
2017-03-21T00:54:35.782Z,82.07
2017-03-21T00:54:40.100Z,82.54
2017-03-21T00:54:44.181Z,82.35
2017-03-21T00:54:48.619Z,82.45
2017-03-21T00:54:53.058Z,81.78
2017-03-21T00:54:57.145Z,82.45
2017-03-21T00:55:01.581Z,81.88
2017-03-21T00:55:05.789Z,82.26
2017-03-21T00:55:10.099Z,81.78
2017-03-21T00:55:14.411Z,82.07
2017-03-21T00:55:18.729Z,81.97
2017-03-21T00:55:23.167Z,81.97
2017-03-21T00:55:27.603Z,81.88
2017-03-21T00:55:32.031Z,82.07
2017-03-21T00:55:36.459Z,81.88
2017-03-21T00:55:40.789Z,81.78
2017-03-21T00:55:45.245Z,82.07
2017-03-21T00:55:49.680Z,81.88
2017-03-21T00:55:53.990Z,82.35
2017-03-21T00:55:58.188Z,82.26
2017-03-21T00:56:02.535Z,82.07
2017-03-21T00:56:06.845Z,82.26